Time;durP1;ratioP1;P1;durP2;ratioP2;P2;SDS_P1;SDS_P2;PMS_P1;PMS_P2;Temp;Humidity;BMP_temperature;BMP_pressure;BME280_temperature;BME280_humidity;BME280_pressure;Samples;Min_cycle;Max_cycle;Signal;HPM_P1;HPM_P2
2021/01/13 00:00:36;;;;;;;23.45;6.07;;;0.40;94.80;;;;;;5111643;28;20383;-86
2021/01/13 00:03:01;;;;;;;21.10;6.38;;;0.40;95.00;;;;;;5112150;28;20372;-86
2021/01/13 00:05:27;;;;;;;25.57;6.70;;;0.40;94.80;;;;;;5111436;28;20415;-86
2021/01/13 00:07:53;;;;;;;20.23;6.00;;;0.40;94.90;;;;;;5111359;28;20372;-86
2021/01/13 00:10:19;;;;;;;14.53;5.30;;;0.40;94.90;;;;;;5111408;28;20404;-86
2021/01/13 00:12:45;;;;;;;20.73;5.37;;;0.40;95.00;;;;;;5111418;28;20373;-86
2021/01/13 00:15:11;;;;;;;20.63;6.03;;;0.30;94.70;;;;;;5110582;28;20554;-87
2021/01/13 00:17:39;;;;;;;25.70;6.33;;;0.30;95.00;;;;;;5110933;28;20377;-86
2021/01/13 00:20:06;;;;;;;17.80;5.35;;;0.30;95.10;;;;;;5111493;28;20376;-87
2021/01/13 00:22:32;;;;;;;22.98;5.70;;;0.30;95.10;;;;;;5110779;28;20857;-86
2021/01/13 00:24:57;;;;;;;24.88;5.70;;;0.30;95.00;;;;;;5111229;28;20384;-86
2021/01/13 00:27:23;;;;;;;22.13;5.45;;;0.30;95.10;;;;;;5110774;28;20376;-86
2021/01/13 00:29:53;;;;;;;19.83;5.20;;;0.30;95.00;;;;;;5111297;28;20456;-86
2021/01/13 00:32:19;;;;;;;20.90;5.15;;;0.20;95.10;;;;;;5111090;28;20922;-86
2021/01/13 00:34:45;;;;;;;20.63;5.82;;;0.20;95.30;;;;;;5111515;28;20381;-86
2021/01/13 00:37:11;;;;;;;20.30;5.97;;;0.30;95.30;;;;;;5110542;28;20383;-87
2021/01/13 00:39:37;;;;;;;22.47;5.77;;;0.30;95.30;;;;;;5110738;28;20914;-86
2021/01/13 00:42:04;;;;;;;23.67;6.85;;;0.20;95.40;;;;;;5109849;28;20384;-86
2021/01/13 00:44:29;;;;;;;21.52;6.22;;;0.20;95.40;;;;;;5109643;28;20376;-86
2021/01/13 00:46:55;;;;;;;20.67;6.07;;;0.30;95.20;;;;;;5109686;28;20391;-86
2021/01/13 00:49:21;;;;;;;22.17;7.10;;;0.20;95.30;;;;;;5110889;28;20379;-86
2021/01/13 00:51:46;;;;;;;23.33;6.43;;;0.20;95.30;;;;;;5109841;28;20797;-86
2021/01/13 00:54:13;;;;;;;19.52;7.03;;;0.10;95.40;;;;;;5110845;28;20389;-86
2021/01/13 00:56:47;;;;;;;26.45;6.47;;;0.10;95.40;;;;;;5110765;28;20859;-87
2021/01/13 00:59:13;;;;;;;17.77;6.30;;;0.20;95.70;;;;;;5108882;28;20412;-86
2021/01/13 01:01:40;;;;;;;14.35;6.25;;;0.30;95.40;;;;;;5110950;28;20502;-86
2021/01/13 01:04:07;;;;;;;22.73;7.18;;;0.10;95.60;;;;;;5109520;28;20784;-86
2021/01/13 01:06:33;;;;;;;23.13;6.43;;;0.30;95.40;;;;;;5110665;28;20369;-86
2021/01/13 01:08:59;;;;;;;18.70;7.03;;;0.20;95.50;;;;;;5109594;28;20396;-87
2021/01/13 01:11:28;;;;;;;30.20;7.82;;;0.30;95.60;;;;;;5109148;28;20404;-86
2021/01/13 01:13:53;;;;;;;20.83;8.20;;;0.20;95.40;;;;;;5109680;28;20395;-88
2021/01/13 01:16:19;;;;;;;20.75;7.47;;;0.20;95.70;;;;;;5109267;28;20392;-86
2021/01/13 01:18:45;;;;;;;25.42;7.75;;;0.20;95.60;;;;;;5110620;28;20380;-86
2021/01/13 01:21:10;;;;;;;30.37;7.80;;;0.20;95.90;;;;;;5109331;28;20856;-86
2021/01/13 01:23:36;;;;;;;29.63;10.10;;;0.20;95.50;;;;;;5143940;27;20400;-86
2021/01/13 01:26:03;;;;;;;28.83;8.73;;;0.20;95.50;;;;;;5110636;28;20834;-86
2021/01/13 01:28:29;;;;;;;25.35;8.43;;;0.30;95.50;;;;;;5109242;28;20400;-86
2021/01/13 01:30:54;;;;;;;29.05;8.90;;;0.30;95.60;;;;;;5110421;28;20461;-86
2021/01/13 01:33:20;;;;;;;29.02;8.02;;;0.40;95.40;;;;;;5110736;28;20376;-86
2021/01/13 01:35:46;;;;;;;25.77;8.20;;;0.40;95.30;;;;;;5110348;28;20426;-86
2021/01/13 01:38:12;;;;;;;27.33;7.80;;;0.30;95.30;;;;;;5114045;28;20387;-85
2021/01/13 01:40:37;;;;;;;26.20;7.85;;;0.30;95.30;;;;;;5113390;28;20743;-86
2021/01/13 01:43:03;;;;;;;18.48;7.60;;;0.30;95.30;;;;;;5113090;28;20384;-86
2021/01/13 01:45:30;;;;;;;25.90;8.50;;;0.30;95.30;;;;;;5147642;27;20388;-86
2021/01/13 01:48:01;;;;;;;29.85;7.78;;;0.30;95.20;;;;;;5114095;28;20380;-86
2021/01/13 01:50:33;;;;;;;26.50;8.07;;;0.30;95.10;;;;;;5114432;28;20400;-86
2021/01/13 01:53:31;;;;;;;22.60;8.40;;;0.20;95.40;;;;;;5112893;28;20442;-87
2021/01/13 01:56:27;;;;;;;32.17;8.30;;;0.20;95.40;;;;;;5107166;28;20914;-87
2021/01/13 01:59:03;;;;;;;24.17;8.13;;;0.20;95.20;;;;;;5108298;28;20380;-87
2021/01/13 02:01:35;;;;;;;26.13;8.27;;;0.30;95.40;;;;;;5114034;28;20392;-87
2021/01/13 02:04:12;;;;;;;18.88;7.97;;;0.40;95.30;;;;;;5112584;28;20434;-86
2021/01/13 02:07:10;;;;;;;23.05;8.02;;;0.40;95.10;;;;;;5112722;28;20590;-86
2021/01/13 02:09:37;;;;;;;21.67;8.07;;;0.40;95.10;;;;;;5096570;28;20387;-86
2021/01/13 02:12:10;;;;;;;28.02;7.88;;;0.40;95.10;;;;;;5112821;28;20400;-86
2021/01/13 02:14:36;;;;;;;19.08;8.10;;;0.40;94.90;;;;;;5113975;28;20733;-87
2021/01/13 02:17:05;;;;;;;24.63;8.57;;;0.40;95.00;;;;;;5112401;28;20386;-86
2021/01/13 02:19:46;;;;;;;23.58;7.90;;;0.40;94.80;;;;;;5112320;28;20389;-87
2021/01/13 02:22:13;;;;;;;25.48;7.90;;;0.40;94.70;;;;;;5112367;28;20880;-87
2021/01/13 02:25:10;;;;;;;22.17;7.43;;;0.40;94.70;;;;;;5112102;28;20861;-87
2021/01/13 02:28:06;;;;;;;16.38;6.90;;;0.40;94.90;;;;;;5113322;28;20384;-87
2021/01/13 02:31:02;;;;;;;21.05;8.73;;;0.30;94.90;;;;;;5112224;28;20411;-88
2021/01/13 02:33:35;;;;;;;18.58;7.38;;;0.30;95.00;;;;;;5101873;28;20907;-87
2021/01/13 02:36:16;;;;;;;21.80;7.30;;;0.30;95.00;;;;;;5112247;28;20487;-87
2021/01/13 02:38:44;;;;;;;19.50;7.60;;;0.30;95.00;;;;;;5111596;28;20391;-87
2021/01/13 02:41:18;;;;;;;20.10;7.93;;;0.30;95.10;;;;;;5111872;28;20423;-87
2021/01/13 02:43:58;;;;;;;23.23;7.47;;;0.30;95.00;;;;;;5111923;28;20388;-87
2021/01/13 02:46:35;;;;;;;28.20;7.82;;;0.30;95.00;;;;;;5113068;28;20406;-87
2021/01/13 02:49:03;;;;;;;19.00;7.43;;;0.30;95.10;;;;;;5112929;28;20618;-86
2021/01/13 02:51:31;;;;;;;24.33;7.63;;;0.40;94.70;;;;;;5111624;28;20460;-86
2021/01/13 02:54:07;;;;;;;27.67;8.40;;;0.40;94.70;;;;;;5111718;28;20891;-86
2021/01/13 02:56:40;;;;;;;26.83;7.95;;;0.40;94.80;;;;;;5111289;28;20421;-86
2021/01/13 02:59:11;;;;;;;23.23;8.00;;;0.40;94.70;;;;;;5112887;27;20729;-86
2021/01/13 03:01:40;;;;;;;17.77;7.47;;;0.40;94.90;;;;;;5111595;28;20738;-87
2021/01/13 03:04:07;;;;;;;32.95;8.48;;;0.40;94.90;;;;;;5112650;28;20411;-87
2021/01/13 03:06:37;;;;;;;22.40;7.60;;;0.40;94.90;;;;;;5111446;28;20960;-86
2021/01/13 03:09:10;;;;;;;19.38;7.57;;;0.50;94.80;;;;;;5112902;28;20729;-86
2021/01/13 03:11:37;;;;;;;26.63;8.15;;;0.50;94.60;;;;;;5112682;28;20403;-86
2021/01/13 03:14:25;;;;;;;20.77;7.45;;;0.50;94.50;;;;;;5112603;28;20529;-86
2021/01/13 03:17:04;;;;;;;24.23;7.38;;;0.60;94.40;;;;;;5111000;28;20380;-87
2021/01/13 03:19:46;;;;;;;18.73;7.93;;;0.60;94.50;;;;;;5112726;28;20733;-86
2021/01/13 03:22:17;;;;;;;22.17;7.38;;;0.60;94.50;;;;;;5112415;28;20433;-87
2021/01/13 03:25:04;;;;;;;25.92;8.07;;;0.50;94.50;;;;;;5111304;28;20391;-86
2021/01/13 03:27:36;;;;;;;18.23;7.80;;;0.60;94.40;;;;;;5111882;28;20714;-87
2021/01/13 03:30:05;;;;;;;26.07;8.60;;;0.60;94.30;;;;;;5112370;28;20373;-85
2021/01/13 03:33:07;;;;;;;26.25;7.68;;;0.50;94.50;;;;;;5111972;28;20419;-86
2021/01/13 03:35:43;;;;;;;22.38;7.13;;;0.50;94.50;;;;;;5088159;28;20380;-86
2021/01/13 03:38:16;;;;;;;19.17;6.82;;;0.50;94.50;;;;;;5112080;28;20414;-86
2021/01/13 03:40:44;;;;;;;24.05;7.80;;;0.60;94.30;;;;;;5112077;28;20373;-87
2021/01/13 03:43:22;;;;;;;24.10;7.30;;;0.50;94.50;;;;;;5110912;28;20384;-86
2021/01/13 03:45:55;;;;;;;26.58;8.07;;;0.60;94.50;;;;;;5110736;28;20399;-87
2021/01/13 03:48:42;;;;;;;19.33;7.80;;;0.60;94.50;;;;;;5110369;28;20475;-87
2021/01/13 03:51:42;;;;;;;25.45;7.53;;;0.60;94.40;;;;;;5111960;28;20745;-87
2021/01/13 03:54:10;;;;;;;26.45;7.60;;;0.70;94.20;;;;;;5111664;28;20836;-87
2021/01/13 03:56:59;;;;;;;23.45;7.60;;;0.60;94.40;;;;;;5111733;28;20384;-87
2021/01/13 03:59:46;;;;;;;30.10;7.97;;;0.60;94.50;;;;;;5109768;28;20381;-87
2021/01/13 04:02:18;;;;;;;24.20;7.60;;;0.70;94.20;;;;;;5110371;28;20418;-87
2021/01/13 04:05:16;;;;;;;17.50;7.23;;;0.60;94.30;;;;;;5111875;28;20404;-87
2021/01/13 04:07:43;;;;;;;23.92;7.57;;;0.60;94.30;;;;;;5110992;28;20415;-87
2021/01/13 04:10:13;;;;;;;26.08;8.15;;;0.50;94.50;;;;;;5110256;28;20463;-87
2021/01/13 04:12:49;;;;;;;22.33;7.65;;;0.50;94.40;;;;;;5111385;27;20483;-88
2021/01/13 04:15:20;;;;;;;22.80;7.75;;;0.50;94.40;;;;;;5113334;28;20388;-87
2021/01/13 04:17:46;;;;;;;18.55;7.53;;;0.40;94.60;;;;;;5112107;28;20415;-87
2021/01/13 04:20:12;;;;;;;22.75;7.63;;;0.40;94.60;;;;;;5110566;28;20383;-87
2021/01/13 04:22:39;;;;;;;18.77;7.20;;;0.40;94.60;;;;;;5111434;28;20468;-87
2021/01/13 04:25:05;;;;;;;21.83;7.82;;;0.40;94.70;;;;;;5110391;28;20771;-86
2021/01/13 04:27:31;;;;;;;25.03;8.10;;;0.40;94.70;;;;;;5109701;28;20393;-87
2021/01/13 04:29:57;;;;;;;22.70;8.45;;;0.40;94.70;;;;;;5107104;28;20402;-86
2021/01/13 04:32:22;;;;;;;27.88;8.57;;;0.40;94.80;;;;;;5110007;28;20446;-87
2021/01/13 04:34:48;;;;;;;23.98;7.75;;;0.40;94.80;;;;;;5109805;28;20387;-87
2021/01/13 04:37:15;;;;;;;25.23;8.55;;;0.50;94.70;;;;;;5110919;28;20372;-87
2021/01/13 04:39:41;;;;;;;27.55;9.85;;;0.40;94.80;;;;;;5109836;28;20385;-87
2021/01/13 04:42:12;;;;;;;29.05;8.75;;;0.40;94.80;;;;;;5109761;28;20384;-87
2021/01/13 04:45:03;;;;;;;18.80;8.60;;;0.60;94.80;;;;;;5109761;28;20467;-87
2021/01/13 04:47:47;;;;;;;24.88;9.85;;;0.50;94.70;;;;;;5110714;28;20376;-87
2021/01/13 04:50:17;;;;;;;27.40;10.15;;;0.50;94.90;;;;;;5110321;28;20604;-87
2021/01/13 04:52:43;;;;;;;34.22;10.02;;;0.50;95.00;;;;;;5109275;28;20445;-87
2021/01/13 04:55:22;;;;;;;26.75;9.80;;;0.50;95.10;;;;;;5110859;28;20406;-87
2021/01/13 04:58:15;;;;;;;30.98;10.68;;;0.40;95.10;;;;;;5110464;28;20464;-87
2021/01/13 05:00:56;;;;;;;28.40;10.65;;;0.40;95.10;;;;;;5110870;28;20376;-87
2021/01/13 05:03:49;;;;;;;28.85;11.90;;;0.40;95.20;;;;;;5109625;28;20392;-87
2021/01/13 05:06:45;;;;;;;28.98;11.65;;;0.40;95.60;;;;;;5110779;28;20392;-87
2021/01/13 05:09:11;;;;;;;27.88;11.02;;;0.40;95.80;;;;;;5109856;28;20383;-87
2021/01/13 05:11:48;;;;;;;28.20;11.25;;;0.50;95.40;;;;;;5114842;28;20407;-86
2021/01/13 05:14:15;;;;;;;31.73;12.30;;;0.50;95.60;;;;;;5113442;28;20911;-86
2021/01/13 05:16:50;;;;;;;32.83;12.95;;;0.40;95.50;;;;;;5114627;28;20412;-87
2021/01/13 05:19:41;;;;;;;25.17;10.63;;;0.50;95.70;;;;;;5113366;28;20896;-87
2021/01/13 05:22:11;;;;;;;27.73;11.82;;;0.40;95.70;;;;;;5085183;28;20487;-86
2021/01/13 05:24:40;;;;;;;30.23;11.55;;;0.50;95.90;;;;;;5113509;28;20688;-87
2021/01/13 05:27:31;;;;;;;28.77;12.93;;;0.50;95.60;;;;;;5113364;28;20562;-88
2021/01/13 05:30:00;;;;;;;32.88;12.20;;;0.60;95.80;;;;;;5113233;28;20395;-87
2021/01/13 05:32:27;;;;;;;29.23;12.10;;;0.60;95.70;;;;;;5113222;28;20400;-87
2021/01/13 05:35:02;;;;;;;32.05;13.00;;;0.60;95.80;;;;;;5113454;28;20437;-87
2021/01/13 05:37:48;;;;;;;31.65;11.80;;;0.70;95.90;;;;;;5112956;28;20392;-88
2021/01/13 05:40:15;;;;;;;30.23;11.73;;;0.70;95.70;;;;;;5114369;28;20725;-87
2021/01/13 05:42:40;;;;;;;26.80;12.20;;;0.80;95.60;;;;;;5114460;27;20400;-87
2021/01/13 05:45:07;;;;;;;23.95;11.70;;;0.80;95.50;;;;;;5114934;28;20879;-87
2021/01/13 05:47:53;;;;;;;31.77;12.47;;;0.80;95.70;;;;;;5112565;28;20543;-87
2021/01/13 05:50:21;;;;;;;23.10;8.73;;;0.80;95.70;;;;;;5113102;28;20427;-88
2021/01/13 05:52:48;;;;;;;28.45;11.90;;;1.00;95.50;;;;;;5113179;28;20392;-88
2021/01/13 05:55:16;;;;;;;35.27;12.67;;;0.90;95.50;;;;;;5113035;28;20852;-88
2021/01/13 05:57:56;;;;;;;26.63;11.98;;;0.90;95.90;;;;;;5113939;28;20483;-88
2021/01/13 06:00:24;;;;;;;33.08;11.80;;;0.90;96.00;;;;;;5114036;28;20388;-88
2021/01/13 06:02:56;;;;;;;25.75;11.68;;;0.90;96.20;;;;;;5112707;28;20392;-88
2021/01/13 06:05:23;;;;;;;22.85;11.05;;;0.90;96.30;;;;;;5112790;28;20416;-87
2021/01/13 06:07:51;;;;;;;35.97;10.80;;;0.90;96.30;;;;;;5113857;28;20391;-88
2021/01/13 06:10:18;;;;;;;30.02;10.98;;;1.00;96.10;;;;;;5112471;28;20387;-89
2021/01/13 06:12:47;;;;;;;31.05;10.80;;;1.00;96.20;;;;;;5112664;28;20392;-87
2021/01/13 06:15:13;;;;;;;23.75;11.38;;;1.10;96.40;;;;;;5112954;28;20483;-87
2021/01/13 06:17:50;;;;;;;34.20;11.82;;;1.10;96.30;;;;;;5113269;28;20391;-88
2021/01/13 06:20:24;;;;;;;28.17;12.07;;;1.10;96.20;;;;;;5112797;28;20411;-88
2021/01/13 06:22:51;;;;;;;34.55;13.73;;;1.20;96.10;;;;;;5113212;28;20368;-88
2021/01/13 06:25:30;;;;;;;30.80;11.65;;;1.10;96.30;;;;;;5113825;28;20928;-87
2021/01/13 06:28:46;;;;;;;31.50;13.00;;;1.20;96.40;;;;;;5113382;28;20830;-87
2021/01/13 06:31:20;;;;;;;32.80;14.57;;;1.20;96.40;;;;;;5086700;28;20410;-86
2021/01/13 06:34:25;;;;;;;35.97;14.07;;;1.20;96.40;;;;;;5114344;28;20738;-86
2021/01/13 06:36:50;;;;;;;26.77;14.23;;;1.10;96.50;;;;;;5081676;28;20391;-86
2021/01/13 06:39:17;;;;;;;35.38;14.15;;;1.20;96.30;;;;;;5113871;28;20737;-86
2021/01/13 06:41:49;;;;;;;35.03;14.02;;;1.10;96.60;;;;;;5112496;28;20431;-86
2021/01/13 06:44:19;;;;;;;42.43;14.33;;;1.00;97.10;;;;;;5111952;28;20532;-86
2021/01/13 06:46:44;;;;;;;42.03;16.43;;;1.10;97.20;;;;;;5112035;28;20380;-85
2021/01/13 06:49:18;;;;;;;36.92;17.77;;;1.10;97.10;;;;;;5112234;28;20444;-85
2021/01/13 06:51:51;;;;;;;52.03;20.40;;;1.10;97.10;;;;;;5113577;28;20408;-85
2021/01/13 06:54:21;;;;;;;45.05;20.20;;;1.20;97.20;;;;;;5112026;28;20388;-84
2021/01/13 06:56:50;;;;;;;47.88;20.40;;;1.20;97.20;;;;;;5113122;28;20431;-85
2021/01/13 06:59:17;;;;;;;44.67;19.73;;;1.20;97.20;;;;;;5113284;28;20375;-84
2021/01/13 07:02:01;;;;;;;46.60;20.27;;;1.20;97.10;;;;;;5109050;28;20388;-84
2021/01/13 07:04:28;;;;;;;57.38;19.98;;;1.30;97.20;;;;;;5113379;28;20470;-85
2021/01/13 07:07:07;;;;;;;49.38;19.83;;;1.30;97.00;;;;;;5111040;28;20395;-84
2021/01/13 07:09:38;;;;;;;50.00;19.15;;;1.30;97.00;;;;;;5112564;28;20373;-84
2021/01/13 07:12:30;;;;;;;45.67;20.73;;;1.40;96.80;;;;;;5112581;28;20945;-85
2021/01/13 07:14:58;;;;;;;50.90;20.20;;;1.30;96.80;;;;;;5107935;28;20392;-84
2021/01/13 07:17:25;;;;;;;37.92;19.35;;;1.40;97.00;;;;;;5110766;28;20388;-85
2021/01/13 07:19:53;;;;;;;42.58;18.83;;;1.40;96.80;;;;;;5112953;28;20415;-85
2021/01/13 07:22:21;;;;;;;43.75;18.15;;;1.40;96.80;;;;;;5111026;28;20864;-85
2021/01/13 07:24:48;;;;;;;42.35;18.08;;;1.30;96.80;;;;;;5112578;28;20373;-85
2021/01/13 07:27:15;;;;;;;49.97;18.23;;;1.30;96.70;;;;;;5110955;28;20891;-84
2021/01/13 07:29:41;;;;;;;51.37;19.33;;;1.20;96.50;;;;;;5110921;28;20422;-85
2021/01/13 07:32:11;;;;;;;48.85;19.10;;;1.30;96.70;;;;;;5111388;28;20565;-85
2021/01/13 07:34:41;;;;;;;51.00;20.73;;;1.30;96.60;;;;;;5109891;28;20741;-84
2021/01/13 07:37:31;;;;;;;43.97;18.15;;;1.20;96.50;;;;;;5110664;28;20385;-85
2021/01/13 07:40:18;;;;;;;51.78;18.70;;;1.30;96.60;;;;;;5110478;28;20392;-85
2021/01/13 07:42:46;;;;;;;41.53;19.13;;;1.30;96.30;;;;;;5111289;28;20480;-84
2021/01/13 07:45:14;;;;;;;51.33;19.75;;;1.30;96.60;;;;;;5109472;28;20381;-84
2021/01/13 07:47:48;;;;;;;47.05;19.80;;;1.30;96.40;;;;;;5108753;28;20438;-85
2021/01/13 07:50:15;;;;;;;51.38;19.02;;;1.20;96.40;;;;;;5111618;28;20463;-85
2021/01/13 07:52:46;;;;;;;46.53;18.63;;;1.20;96.50;;;;;;5110355;28;20392;-84
2021/01/13 07:55:22;;;;;;;44.80;18.20;;;1.20;96.60;;;;;;5111394;28;20377;-84
2021/01/13 07:57:55;;;;;;;45.22;17.77;;;1.20;96.50;;;;;;5109913;28;20419;-85
2021/01/13 08:00:27;;;;;;;47.15;18.65;;;1.20;96.50;;;;;;5111773;28;20407;-86
2021/01/13 08:03:17;;;;;;;42.53;18.90;;;1.20;96.40;;;;;;5110207;28;20686;-85
2021/01/13 08:06:01;;;;;;;39.20;17.48;;;1.10;96.50;;;;;;5110000;28;20472;-85
2021/01/13 08:08:52;;;;;;;46.15;17.02;;;1.20;96.40;;;;;;5111233;28;20376;-84
2021/01/13 08:11:47;;;;;;;37.08;14.80;;;1.20;96.60;;;;;;5109906;28;20404;-85
2021/01/13 08:14:43;;;;;;;45.38;17.35;;;1.20;96.60;;;;;;5110046;28;20391;-85
2021/01/13 08:17:54;;;;;;;43.70;17.38;;;1.20;96.40;;;;;;5111208;28;20456;-85
2021/01/13 08:20:34;;;;;;;30.88;15.40;;;1.30;96.40;;;;;;5110105;28;20438;-85
2021/01/13 08:23:09;;;;;;;46.33;16.92;;;1.30;96.30;;;;;;5109865;28;20388;-86
2021/01/13 08:25:51;;;;;;;45.17;16.27;;;1.40;96.10;;;;;;5110150;28;20884;-85
2021/01/13 08:28:20;;;;;;;41.87;14.50;;;1.30;96.00;;;;;;5109419;28;20883;-86
2021/01/13 08:30:48;;;;;;;35.80;15.32;;;1.40;96.00;;;;;;5110055;28;20408;-85
2021/01/13 08:33:25;;;;;;;44.10;16.67;;;1.40;95.90;;;;;;5109741;28;20424;-85
2021/01/13 08:36:01;;;;;;;37.40;15.32;;;1.40;96.10;;;;;;5111864;28;20379;-85
2021/01/13 08:38:27;;;;;;;46.15;16.80;;;1.50;95.90;;;;;;5109444;28;20786;-85
2021/01/13 08:40:54;;;;;;;27.42;13.40;;;1.50;95.90;;;;;;5109599;28;20384;-84
2021/01/13 08:43:22;;;;;;;29.75;13.48;;;1.60;95.60;;;;;;5111124;28;20381;-84
2021/01/13 08:45:50;;;;;;;27.65;13.65;;;1.50;95.60;;;;;;5110858;28;20838;-85
2021/01/13 08:48:22;;;;;;;33.72;14.48;;;1.50;95.70;;;;;;5111203;28;20420;-85
2021/01/13 08:51:04;;;;;;;28.27;13.20;;;1.50;95.80;;;;;;5109591;28;20407;-84
2021/01/13 08:53:31;;;;;;;35.72;14.10;;;1.60;95.40;;;;;;5111337;28;20450;-84
2021/01/13 08:55:57;;;;;;;32.00;14.43;;;1.70;95.60;;;;;;5109640;28;20441;-84
2021/01/13 08:58:33;;;;;;;32.35;12.75;;;1.80;95.40;;;;;;5109107;28;20380;-84
2021/01/13 09:01:09;;;;;;;38.83;12.32;;;1.80;95.10;;;;;;5111192;28;20379;-85
2021/01/13 09:03:36;;;;;;;29.77;13.25;;;1.80;94.50;;;;;;5110587;28;20944;-84
2021/01/13 09:06:21;;;;;;;30.42;13.75;;;1.70;94.90;;;;;;5111077;28;20372;-84
2021/01/13 09:08:49;;;;;;;42.42;14.63;;;1.60;95.30;;;;;;5109914;28;20767;-84
2021/01/13 09:11:35;;;;;;;29.45;13.68;;;1.50;95.30;;;;;;5111002;28;20880;-83
2021/01/13 09:14:27;;;;;;;30.80;14.35;;;1.50;95.30;;;;;;5109541;28;20396;-84
2021/01/13 09:16:57;;;;;;;36.25;14.63;;;1.60;95.40;;;;;;5109064;28;20801;-84
2021/01/13 09:19:38;;;;;;;33.00;14.65;;;1.60;95.20;;;;;;5110505;28;20460;-84
2021/01/13 09:22:07;;;;;;;36.53;14.13;;;1.60;95.40;;;;;;5109188;28;20388;-84
2021/01/13 09:24:43;;;;;;;36.07;14.83;;;1.70;95.00;;;;;;5110490;28;20436;-84
2021/01/13 09:27:11;;;;;;;28.83;13.53;;;1.70;94.70;;;;;;5108603;28;20504;-84
2021/01/13 09:29:54;;;;;;;37.35;16.00;;;1.80;94.90;;;;;;5109259;28;20861;-83
2021/01/13 09:32:22;;;;;;;30.97;14.53;;;1.90;94.40;;;;;;5108990;28;20440;-83
2021/01/13 09:34:49;;;;;;;40.60;15.65;;;1.90;94.00;;;;;;5108962;28;20392;-83
2021/01/13 09:37:16;;;;;;;34.20;14.55;;;2.00;93.90;;;;;;5109800;28;20385;-83
2021/01/13 09:39:59;;;;;;;36.75;14.73;;;2.00;94.00;;;;;;5108882;28;20380;-83
2021/01/13 09:42:35;;;;;;;33.10;12.87;;;2.00;94.40;;;;;;5110523;28;20397;-83
2021/01/13 09:45:03;;;;;;;37.88;13.50;;;2.00;94.10;;;;;;5108768;28;20418;-84
2021/01/13 09:47:28;;;;;;;32.60;14.10;;;1.90;94.10;;;;;;5108530;28;20388;-83
2021/01/13 09:49:57;;;;;;;36.45;14.63;;;2.00;94.20;;;;;;5109821;28;20853;-83
2021/01/13 09:52:37;;;;;;;36.88;13.35;;;2.00;94.40;;;;;;5108771;28;20416;-83
2021/01/13 09:55:04;;;;;;;30.02;11.10;;;2.00;94.00;;;;;;5110618;28;20387;-83
2021/01/13 09:57:33;;;;;;;32.60;13.05;;;2.00;93.90;;;;;;5111955;28;20530;-83
2021/01/13 10:00:10;;;;;;;38.10;13.93;;;2.00;94.30;;;;;;5114306;28;20376;-83
2021/01/13 10:02:37;;;;;;;32.35;14.32;;;2.00;94.10;;;;;;5112263;28;20451;-83
2021/01/13 10:05:03;;;;;;;32.38;13.70;;;2.10;94.10;;;;;;5113831;28;20372;-84
2021/01/13 10:07:31;;;;;;;35.15;14.63;;;2.10;94.00;;;;;;5111804;28;20420;-83
2021/01/13 10:09:58;;;;;;;31.45;13.65;;;2.10;93.80;;;;;;5112443;28;20385;-83
2021/01/13 10:12:39;;;;;;;37.45;14.90;;;2.20;94.10;;;;;;5113468;28;20404;-82
2021/01/13 10:15:07;;;;;;;31.67;14.48;;;2.30;93.90;;;;;;5112382;28;20425;-83
2021/01/13 10:17:34;;;;;;;32.03;14.70;;;2.30;93.70;;;;;;5112965;28;20377;-85
2021/01/13 10:20:15;;;;;;;38.83;15.27;;;2.30;93.40;;;;;;5112117;28;20384;-84
2021/01/13 10:22:41;;;;;;;35.60;14.57;;;2.30;93.70;;;;;;5113577;28;20387;-83
2021/01/13 10:25:08;;;;;;;31.70;13.80;;;2.30;93.50;;;;;;5111962;28;20472;-83
2021/01/13 10:27:43;;;;;;;31.88;13.23;;;2.30;93.40;;;;;;5111705;28;20895;-83
2021/01/13 10:30:10;;;;;;;35.67;13.68;;;2.40;93.00;;;;;;5111420;28;20395;-83
2021/01/13 10:32:51;;;;;;;38.70;14.70;;;2.40;93.10;;;;;;5111410;28;20421;-83
2021/01/13 10:35:18;;;;;;;30.95;13.23;;;2.40;93.40;;;;;;5112901;28;20372;-84
2021/01/13 10:37:53;;;;;;;43.90;14.97;;;2.50;93.20;;;;;;5113266;28;20373;-83
2021/01/13 10:40:20;;;;;;;30.90;14.55;;;2.70;92.60;;;;;;5111800;28;20957;-83
2021/01/13 10:42:52;;;;;;;30.00;14.10;;;2.70;92.80;;;;;;5111612;28;20421;-83
2021/01/13 10:45:19;;;;;;;31.20;15.45;;;2.60;93.20;;;;;;5111971;28;20482;-83
2021/01/13 10:47:56;;;;;;;32.00;15.27;;;2.60;93.20;;;;;;5111002;28;20396;-83
2021/01/13 10:50:24;;;;;;;31.95;15.60;;;2.50;93.10;;;;;;5112940;28;20369;-83
2021/01/13 10:52:58;;;;;;;34.58;15.35;;;2.50;93.40;;;;;;5111259;28;20416;-84
2021/01/13 10:55:26;;;;;;;33.08;16.65;;;2.50;93.30;;;;;;5111561;28;20431;-84
2021/01/13 10:57:52;;;;;;;36.85;16.35;;;2.60;93.20;;;;;;5110837;28;20412;-84
2021/01/13 11:00:21;;;;;;;36.78;15.88;;;2.60;93.10;;;;;;5111705;28;20396;-84
2021/01/13 11:02:55;;;;;;;36.85;16.77;;;2.60;93.20;;;;;;5112261;28;20375;-83
2021/01/13 11:05:21;;;;;;;30.30;17.07;;;2.70;92.90;;;;;;5112444;28;20867;-84
2021/01/13 11:07:53;;;;;;;38.83;17.40;;;2.70;93.10;;;;;;5112140;28;20371;-83
2021/01/13 11:10:21;;;;;;;38.22;16.17;;;2.70;93.40;;;;;;5111081;28;20399;-83
2021/01/13 11:12:48;;;;;;;35.30;16.85;;;2.60;93.20;;;;;;5112492;28;20724;-84
2021/01/13 11:15:14;;;;;;;38.67;18.35;;;2.60;92.70;;;;;;5112278;28;20375;-83
2021/01/13 11:17:40;;;;;;;32.50;18.70;;;2.70;93.20;;;;;;5110761;28;20380;-83
2021/01/13 11:20:07;;;;;;;44.30;18.38;;;2.70;93.10;;;;;;5112161;28;20376;-83
2021/01/13 11:22:44;;;;;;;43.00;19.58;;;2.70;93.20;;;;;;5112787;28;20867;-83
2021/01/13 11:25:22;;;;;;;35.67;17.77;;;2.80;93.30;;;;;;5112253;28;20414;-83
2021/01/13 11:27:56;;;;;;;36.63;16.60;;;2.80;92.70;;;;;;5110626;28;20439;-83
2021/01/13 11:30:22;;;;;;;40.22;17.35;;;2.80;92.70;;;;;;5110531;28;20451;-83
2021/01/13 11:32:52;;;;;;;34.63;16.70;;;2.80;92.90;;;;;;5110858;28;20420;-84
2021/01/13 11:35:36;;;;;;;33.08;15.70;;;2.70;92.20;;;;;;5111266;28;20906;-84
2021/01/13 11:38:26;;;;;;;37.67;17.85;;;2.70;92.50;;;;;;5111525;28;20837;-83
2021/01/13 11:41:16;;;;;;;37.63;18.20;;;2.80;92.50;;;;;;5110770;28;20460;-83
2021/01/13 11:44:22;;;;;;;37.08;17.45;;;2.80;92.50;;;;;;5110832;28;20403;-83
2021/01/13 11:47:19;;;;;;;30.92;17.55;;;2.90;92.30;;;;;;5111276;28;21096;-84
2021/01/13 11:49:52;;;;;;;41.00;16.55;;;2.90;92.70;;;;;;5109883;28;20462;-82
2021/01/13 11:52:19;;;;;;;38.25;16.67;;;3.00;92.60;;;;;;5110089;28;20486;-83
2021/01/13 11:54:50;;;;;;;35.55;17.50;;;3.00;92.20;;;;;;5110206;28;20451;-83
2021/01/13 11:57:23;;;;;;;32.25;16.38;;;3.10;91.90;;;;;;5111502;28;20414;-84
2021/01/13 11:59:51;;;;;;;38.45;16.20;;;3.20;92.30;;;;;;5111643;28;20527;-84
2021/01/13 12:02:30;;;;;;;29.38;14.65;;;3.30;91.70;;;;;;5111715;28;20379;-83
2021/01/13 12:04:55;;;;;;;29.38;14.20;;;3.40;91.10;;;;;;5110149;28;20385;-83
2021/01/13 12:07:21;;;;;;;29.05;14.98;;;3.40;91.00;;;;;;5111457;28;20453;-83
2021/01/13 12:10:11;;;;;;;28.65;13.07;;;3.40;91.20;;;;;;5109790;28;20445;-83
2021/01/13 12:12:36;;;;;;;27.23;13.13;;;3.40;90.60;;;;;;5109609;28;20521;-83
2021/01/13 12:15:10;;;;;;;26.03;12.03;;;3.40;89.70;;;;;;5111593;28;20479;-84
2021/01/13 12:17:57;;;;;;;31.83;12.32;;;3.40;89.40;;;;;;5110233;28;20467;-83
2021/01/13 12:20:33;;;;;;;28.45;12.00;;;3.40;90.00;;;;;;5109564;28;20661;-83
2021/01/13 12:23:17;;;;;;;24.70;10.93;;;3.50;89.70;;;;;;5110975;28;20380;-83
2021/01/13 12:25:43;;;;;;;31.42;11.63;;;3.60;89.40;;;;;;5111961;28;20756;-83
2021/01/13 12:28:08;;;;;;;18.40;10.40;;;3.70;89.30;;;;;;5110276;28;20376;-83
2021/01/13 12:30:34;;;;;;;32.13;9.63;;;3.60;88.40;;;;;;5110560;28;20703;-83
2021/01/13 12:33:01;;;;;;;22.50;8.88;;;3.50;87.50;;;;;;5110457;28;20753;-83
2021/01/13 12:35:30;;;;;;;23.50;10.32;;;3.40;87.90;;;;;;5109418;28;20546;-83
2021/01/13 12:37:56;;;;;;;23.08;10.88;;;3.40;88.40;;;;;;5110350;28;20823;-83
2021/01/13 12:40:32;;;;;;;25.67;10.75;;;3.40;88.50;;;;;;5109505;28;20404;-83
2021/01/13 12:43:18;;;;;;;27.60;10.70;;;3.60;89.00;;;;;;5111011;28;20375;-83
2021/01/13 12:45:44;;;;;;;20.25;10.57;;;3.70;87.30;;;;;;5110803;28;20387;-83
2021/01/13 12:48:11;;;;;;;23.98;11.07;;;3.60;88.40;;;;;;5108664;28;20477;-83
2021/01/13 12:50:36;;;;;;;24.48;10.88;;;3.70;89.00;;;;;;5110116;28;20849;-83
2021/01/13 12:53:02;;;;;;;25.00;10.40;;;3.60;87.40;;;;;;5108944;28;20414;-83
2021/01/13 12:55:28;;;;;;;17.13;8.73;;;3.50;88.20;;;;;;5108972;28;20384;-83
2021/01/13 12:57:54;;;;;;;25.02;11.20;;;3.40;86.50;;;;;;5108438;28;20471;-84
2021/01/13 13:00:21;;;;;;;24.35;10.25;;;3.50;87.20;;;;;;5110338;28;20448;-83
2021/01/13 13:02:46;;;;;;;26.65;10.98;;;3.50;87.20;;;;;;5108985;28;20384;-83
2021/01/13 13:05:12;;;;;;;24.53;10.33;;;3.50;87.30;;;;;;5109804;28;20783;-83
2021/01/13 13:07:38;;;;;;;23.80;11.02;;;3.50;86.80;;;;;;5108652;28;20403;-83
2021/01/13 13:10:05;;;;;;;28.63;11.75;;;3.60;86.80;;;;;;5109554;28;20387;-84